Cervantes, Argentina
Current Conditions -  °F | °C
As of 3:00 AM on Sunday 26 Oct 2014 (Local Time) from SAZN Reporting Station
Clear Clear  
Wind Chill: 13°   Ceiling: Unl
Heat Index: 13°   Visibility: 6mi
Dew Point: 11°   Wind: 0mph
Humidity: 88%   Direction: NA
Pressure: 29.8"   Gusts: NA
Location:  39.06°S, 67.34°W
Report Text: SAZN 260600Z 00000KT CAVOK 13/11 Q1009
Loading
Personal Weather Stations






























Interactive Weather Map
Tropical Storm Tracking
New forecast layout! Learn more

10-Day Weather Forecast

Advertisements
Track Severe Weather on mobile